sensor_id;sensor_type;location;lat;lon;timestamp;temperature;humidity
9033;DHT22;4551;53.164;8.210;2022-08-19T00:01:26;17.80;99.90
9033;DHT22;4551;53.164;8.210;2022-08-19T00:03:57;17.80;99.90
9033;DHT22;4551;53.164;8.210;2022-08-19T00:06:26;17.70;99.90
9033;DHT22;4551;53.164;8.210;2022-08-19T00:08:55;17.60;99.90
9033;DHT22;4551;53.164;8.210;2022-08-19T00:11:24;17.60;99.90
9033;DHT22;4551;53.164;8.210;2022-08-19T00:13:56;17.60;99.90
9033;DHT22;4551;53.164;8.210;2022-08-19T00:16:25;17.60;99.90
9033;DHT22;4551;53.164;8.210;2022-08-19T00:18:53;17.60;99.90
9033;DHT22;4551;53.164;8.210;2022-08-19T00:21:23;17.60;99.90
9033;DHT22;4551;53.164;8.210;2022-08-19T00:23:52;17.60;99.90
9033;DHT22;4551;53.164;8.210;2022-08-19T00:26:20;17.60;99.90
9033;DHT22;4551;53.164;8.210;2022-08-19T00:28:48;17.60;99.90
9033;DHT22;4551;53.164;8.210;2022-08-19T00:31:18;17.60;99.90
9033;DHT22;4551;53.164;8.210;2022-08-19T00:33:46;17.60;99.90
9033;DHT22;4551;53.164;8.210;2022-08-19T00:36:14;17.60;99.90
9033;DHT22;4551;53.164;8.210;2022-08-19T00:38:42;17.60;99.90
9033;DHT22;4551;53.164;8.210;2022-08-19T00:41:13;17.60;99.90
9033;DHT22;4551;53.164;8.210;2022-08-19T00:43:43;17.50;99.90
9033;DHT22;4551;53.164;8.210;2022-08-19T00:46:11;17.50;99.90
9033;DHT22;4551;53.164;8.210;2022-08-19T00:48:41;17.50;99.90
9033;DHT22;4551;53.164;8.210;2022-08-19T00:51:09;17.50;99.90
9033;DHT22;4551;53.164;8.210;2022-08-19T00:53:37;17.40;99.90
9033;DHT22;4551;53.164;8.210;2022-08-19T00:56:06;17.40;99.90
9033;DHT22;4551;53.164;8.210;2022-08-19T00:58:37;17.40;99.90
9033;DHT22;4551;53.164;8.210;2022-08-19T01:01:06;17.40;99.90
9033;DHT22;4551;53.164;8.210;2022-08-19T01:03:37;17.40;99.90
9033;DHT22;4551;53.164;8.210;2022-08-19T01:06:25;17.30;99.90
9033;DHT22;4551;53.164;8.210;2022-08-19T01:08:54;17.30;99.90
9033;DHT22;4551;53.164;8.210;2022-08-19T01:11:22;17.20;99.90
9033;DHT22;4551;53.164;8.210;2022-08-19T01:13:52;17.20;99.90
9033;DHT22;4551;53.164;8.210;2022-08-19T01:16:23;17.10;99.90
9033;DHT22;4551;53.164;8.210;2022-08-19T01:18:53;17.10;99.90
9033;DHT22;4551;53.164;8.210;2022-08-19T01:21:26;17.10;99.90
9033;DHT22;4551;53.164;8.210;2022-08-19T01:23:58;17.00;99.90
9033;DHT22;4551;53.164;8.210;2022-08-19T01:26:27;17.00;99.90
9033;DHT22;4551;53.164;8.210;2022-08-19T01:28:58;17.00;99.90
9033;DHT22;4551;53.164;8.210;2022-08-19T01:31:31;17.00;99.90
9033;DHT22;4551;53.164;8.210;2022-08-19T01:34:00;16.90;99.90
9033;DHT22;4551;53.164;8.210;2022-08-19T01:36:32;16.90;99.90
9033;DHT22;4551;53.164;8.210;2022-08-19T01:39:04;16.90;99.90
9033;DHT22;4551;53.164;8.210;2022-08-19T01:41:33;16.90;99.90
9033;DHT22;4551;53.164;8.210;2022-08-19T01:44:03;16.90;99.90
9033;DHT22;4551;53.164;8.210;2022-08-19T01:46:46;16.80;99.90
9033;DHT22;4551;53.164;8.210;2022-08-19T01:49:16;16.80;99.90
9033;DHT22;4551;53.164;8.210;2022-08-19T01:51:45;16.80;99.90
9033;DHT22;4551;53.164;8.210;2022-08-19T01:54:17;16.80;99.90
9033;DHT22;4551;53.164;8.210;2022-08-19T01:56:57;16.80;99.90
9033;DHT22;4551;53.164;8.210;2022-08-19T01:59:25;16.80;99.90
9033;DHT22;4551;53.164;8.210;2022-08-19T02:01:54;16.70;99.90
9033;DHT22;4551;53.164;8.210;2022-08-19T02:04:22;16.70;99.90
9033;DHT22;4551;53.164;8.210;2022-08-19T02:06:52;16.70;99.90
9033;DHT22;4551;53.164;8.210;2022-08-19T02:09:21;16.70;99.90
9033;DHT22;4551;53.164;8.210;2022-08-19T02:11:49;16.60;99.90
9033;DHT22;4551;53.164;8.210;2022-08-19T02:14:17;16.60;99.90
9033;DHT22;4551;53.164;8.210;2022-08-19T02:16:46;16.50;99.90
9033;DHT22;4551;53.164;8.210;2022-08-19T02:19:14;16.40;99.90
9033;DHT22;4551;53.164;8.210;2022-08-19T02:21:42;16.40;99.90
9033;DHT22;4551;53.164;8.210;2022-08-19T02:24:11;16.30;99.90
9033;DHT22;4551;53.164;8.210;2022-08-19T02:26:41;16.30;99.90
9033;DHT22;4551;53.164;8.210;2022-08-19T02:29:09;16.30;99.90
9033;DHT22;4551;53.164;8.210;2022-08-19T02:31:37;16.30;99.90
9033;DHT22;4551;53.164;8.210;2022-08-19T02:34:05;16.30;99.90
9033;DHT22;4551;53.164;8.210;2022-08-19T02:36:33;16.30;99.90
9033;DHT22;4551;53.164;8.210;2022-08-19T02:39:08;16.20;99.90
9033;DHT22;4551;53.164;8.210;2022-08-19T02:41:35;16.20;99.90
9033;DHT22;4551;53.164;8.210;2022-08-19T02:44:05;16.20;99.90
9033;DHT22;4551;53.164;8.210;2022-08-19T02:46:53;16.20;99.90
9033;DHT22;4551;53.164;8.210;2022-08-19T02:49:22;16.10;99.90
9033;DHT22;4551;53.164;8.210;2022-08-19T02:51:50;16.10;99.90
9033;DHT22;4551;53.164;8.210;2022-08-19T02:54:18;16.10;99.90
9033;DHT22;4551;53.164;8.210;2022-08-19T02:56:46;16.10;99.90
9033;DHT22;4551;53.164;8.210;2022-08-19T02:59:16;16.10;99.90
9033;DHT22;4551;53.164;8.210;2022-08-19T03:01:48;16.00;99.90
9033;DHT22;4551;53.164;8.210;2022-08-19T03:04:17;16.00;99.90
9033;DHT22;4551;53.164;8.210;2022-08-19T03:06:47;16.00;99.90
9033;DHT22;4551;53.164;8.210;2022-08-19T03:09:16;16.00;99.90
9033;DHT22;4551;53.164;8.210;2022-08-19T03:11:44;15.90;99.90
9033;DHT22;4551;53.164;8.210;2022-08-19T03:14:16;15.90;99.90
9033;DHT22;4551;53.164;8.210;2022-08-19T03:16:46;15.90;99.90
9033;DHT22;4551;53.164;8.210;2022-08-19T03:19:17;15.90;99.90
9033;DHT22;4551;53.164;8.210;2022-08-19T03:21:45;15.80;99.90
9033;DHT22;4551;53.164;8.210;2022-08-19T03:24:14;15.80;99.90
9033;DHT22;4551;53.164;8.210;2022-08-19T03:26:45;15.70;99.90
9033;DHT22;4551;53.164;8.210;2022-08-19T03:29:13;15.70;99.90
9033;DHT22;4551;53.164;8.210;2022-08-19T03:31:58;15.60;99.90
9033;DHT22;4551;53.164;8.210;2022-08-19T03:34:29;15.60;99.90
9033;DHT22;4551;53.164;8.210;2022-08-19T03:36:59;15.60;99.90
9033;DHT22;4551;53.164;8.210;2022-08-19T03:39:30;15.50;99.90
9033;DHT22;4551;53.164;8.210;2022-08-19T03:41:59;15.50;99.90
9033;DHT22;4551;53.164;8.210;2022-08-19T03:44:49;15.50;99.90
9033;DHT22;4551;53.164;8.210;2022-08-19T03:47:19;15.50;99.90
9033;DHT22;4551;53.164;8.210;2022-08-19T03:49:47;15.50;99.90
9033;DHT22;4551;53.164;8.210;2022-08-19T03:52:15;15.40;99.90
9033;DHT22;4551;53.164;8.210;2022-08-19T03:54:43;15.30;99.90
9033;DHT22;4551;53.164;8.210;2022-08-19T03:57:11;15.30;99.90
9033;DHT22;4551;53.164;8.210;2022-08-19T03:59:39;15.20;99.90
9033;DHT22;4551;53.164;8.210;2022-08-19T04:02:10;15.20;99.90
9033;DHT22;4551;53.164;8.210;2022-08-19T04:04:42;15.10;99.90
9033;DHT22;4551;53.164;8.210;2022-08-19T04:07:12;15.10;99.90
9033;DHT22;4551;53.164;8.210;2022-08-19T04:09:42;15.10;99.90
9033;DHT22;4551;53.164;8.210;2022-08-19T04:12:10;15.10;99.90
9033;DHT22;4551;53.164;8.210;2022-08-19T04:14:39;15.10;99.90
9033;DHT22;4551;53.164;8.210;2022-08-19T04:17:08;15.10;99.90
9033;DHT22;4551;53.164;8.210;2022-08-19T04:19:36;15.10;99.90
9033;DHT22;4551;53.164;8.210;2022-08-19T04:22:06;15.10;99.90
9033;DHT22;4551;53.164;8.210;2022-08-19T04:24:35;15.10;99.90
9033;DHT22;4551;53.164;8.210;2022-08-19T04:27:05;15.10;99.90
9033;DHT22;4551;53.164;8.210;2022-08-19T04:29:33;15.20;99.90
9033;DHT22;4551;53.164;8.210;2022-08-19T04:32:02;15.20;99.90
9033;DHT22;4551;53.164;8.210;2022-08-19T04:34:36;15.20;99.90
9033;DHT22;4551;53.164;8.210;2022-08-19T04:37:26;15.10;99.90
9033;DHT22;4551;53.164;8.210;2022-08-19T04:40:05;15.10;99.90
9033;DHT22;4551;53.164;8.210;2022-08-19T04:42:51;15.10;99.90
9033;DHT22;4551;53.164;8.210;2022-08-19T04:45:20;15.20;99.90
9033;DHT22;4551;53.164;8.210;2022-08-19T04:47:49;15.20;99.90
9033;DHT22;4551;53.164;8.210;2022-08-19T04:50:44;15.20;99.90
9033;DHT22;4551;53.164;8.210;2022-08-19T04:53:14;15.20;99.90
9033;DHT22;4551;53.164;8.210;2022-08-19T04:55:42;15.20;99.90
9033;DHT22;4551;53.164;8.210;2022-08-19T04:58:11;15.30;99.90
9033;DHT22;4551;53.164;8.210;2022-08-19T05:00:39;15.30;99.90
9033;DHT22;4551;53.164;8.210;2022-08-19T05:03:07;15.20;99.90
9033;DHT22;4551;53.164;8.210;2022-08-19T05:05:39;15.20;99.90
9033;DHT22;4551;53.164;8.210;2022-08-19T05:08:12;15.30;99.90
9033;DHT22;4551;53.164;8.210;2022-08-19T05:10:42;15.30;99.90
9033;DHT22;4551;53.164;8.210;2022-08-19T05:13:11;15.30;99.90
9033;DHT22;4551;53.164;8.210;2022-08-19T05:15:40;15.30;99.90
9033;DHT22;4551;53.164;8.210;2022-08-19T05:18:09;15.30;99.90
9033;DHT22;4551;53.164;8.210;2022-08-19T05:20:54;15.30;99.90
9033;DHT22;4551;53.164;8.210;2022-08-19T05:23:40;15.30;99.90
9033;DHT22;4551;53.164;8.210;2022-08-19T05:26:09;15.30;99.90
9033;DHT22;4551;53.164;8.210;2022-08-19T05:28:37;15.30;99.90
9033;DHT22;4551;53.164;8.210;2022-08-19T05:31:06;15.40;99.90
9033;DHT22;4551;53.164;8.210;2022-08-19T05:33:34;15.40;99.90
9033;DHT22;4551;53.164;8.210;2022-08-19T05:36:03;15.40;99.90
9033;DHT22;4551;53.164;8.210;2022-08-19T05:38:33;15.50;99.90
9033;DHT22;4551;53.164;8.210;2022-08-19T05:41:07;15.50;99.90
9033;DHT22;4551;53.164;8.210;2022-08-19T05:43:37;15.40;99.90
9033;DHT22;4551;53.164;8.210;2022-08-19T05:46:06;15.40;99.90
9033;DHT22;4551;53.164;8.210;2022-08-19T05:48:34;15.40;99.90
9033;DHT22;4551;53.164;8.210;2022-08-19T05:51:04;15.50;99.90
9033;DHT22;4551;53.164;8.210;2022-08-19T05:53:34;15.50;99.90
9033;DHT22;4551;53.164;8.210;2022-08-19T05:56:04;15.60;99.90
9033;DHT22;4551;53.164;8.210;2022-08-19T05:58:33;15.60;99.90
9033;DHT22;4551;53.164;8.210;2022-08-19T06:01:04;15.70;99.90
9033;DHT22;4551;53.164;8.210;2022-08-19T06:03:33;15.70;99.90
9033;DHT22;4551;53.164;8.210;2022-08-19T06:06:04;15.80;99.90
9033;DHT22;4551;53.164;8.210;2022-08-19T06:08:34;15.90;99.90
9033;DHT22;4551;53.164;8.210;2022-08-19T06:11:18;15.90;99.90
9033;DHT22;4551;53.164;8.210;2022-08-19T06:13:50;16.00;99.90
9033;DHT22;4551;53.164;8.210;2022-08-19T06:16:27;16.00;99.90
9033;DHT22;4551;53.164;8.210;2022-08-19T06:19:02;16.00;99.90
9033;DHT22;4551;53.164;8.210;2022-08-19T06:21:34;16.00;99.90
9033;DHT22;4551;53.164;8.210;2022-08-19T06:24:04;16.10;99.90
9033;DHT22;4551;53.164;8.210;2022-08-19T06:26:33;16.20;99.90
9033;DHT22;4551;53.164;8.210;2022-08-19T06:29:02;16.20;99.90
9033;DHT22;4551;53.164;8.210;2022-08-19T06:31:35;16.30;99.90
9033;DHT22;4551;53.164;8.210;2022-08-19T06:34:04;16.40;99.90
9033;DHT22;4551;53.164;8.210;2022-08-19T06:36:35;16.40;99.90
9033;DHT22;4551;53.164;8.210;2022-08-19T06:39:05;16.50;99.90
9033;DHT22;4551;53.164;8.210;2022-08-19T06:41:35;16.50;99.90
9033;DHT22;4551;53.164;8.210;2022-08-19T06:44:10;16.70;99.90
9033;DHT22;4551;53.164;8.210;2022-08-19T06:46:41;16.70;99.90
9033;DHT22;4551;53.164;8.210;2022-08-19T06:49:11;16.70;99.90
9033;DHT22;4551;53.164;8.210;2022-08-19T06:51:41;16.80;99.90
9033;DHT22;4551;53.164;8.210;2022-08-19T06:54:10;16.80;99.90
9033;DHT22;4551;53.164;8.210;2022-08-19T06:56:45;16.90;99.90
9033;DHT22;4551;53.164;8.210;2022-08-19T06:59:16;17.00;99.90
9033;DHT22;4551;53.164;8.210;2022-08-19T07:01:48;17.10;99.90
9033;DHT22;4551;53.164;8.210;2022-08-19T07:04:18;17.10;99.90
9033;DHT22;4551;53.164;8.210;2022-08-19T07:06:47;17.20;99.90
9033;DHT22;4551;53.164;8.210;2022-08-19T07:09:21;17.30;99.90
9033;DHT22;4551;53.164;8.210;2022-08-19T07:11:51;17.30;99.90
9033;DHT22;4551;53.164;8.210;2022-08-19T07:14:22;17.40;99.90
9033;DHT22;4551;53.164;8.210;2022-08-19T07:16:56;17.40;99.90
9033;DHT22;4551;53.164;8.210;2022-08-19T07:19:25;17.40;99.90
9033;DHT22;4551;53.164;8.210;2022-08-19T07:21:55;17.50;99.90
9033;DHT22;4551;53.164;8.210;2022-08-19T07:24:24;17.60;99.90
9033;DHT22;4551;53.164;8.210;2022-08-19T07:27:01;17.60;99.90
9033;DHT22;4551;53.164;8.210;2022-08-19T07:29:37;17.60;99.90
9033;DHT22;4551;53.164;8.210;2022-08-19T07:32:06;17.70;99.90
9033;DHT22;4551;53.164;8.210;2022-08-19T07:34:39;17.80;99.90
9033;DHT22;4551;53.164;8.210;2022-08-19T07:37:08;17.80;99.90
9033;DHT22;4551;53.164;8.210;2022-08-19T07:39:37;17.90;99.90
9033;DHT22;4551;53.164;8.210;2022-08-19T07:42:08;17.90;99.90
9033;DHT22;4551;53.164;8.210;2022-08-19T07:44:39;18.00;99.90
9033;DHT22;4551;53.164;8.210;2022-08-19T07:47:15;18.00;99.90
9033;DHT22;4551;53.164;8.210;2022-08-19T07:50:07;18.10;99.90
9033;DHT22;4551;53.164;8.210;2022-08-19T07:52:36;18.20;99.90
9033;DHT22;4551;53.164;8.210;2022-08-19T07:55:06;18.20;99.90
9033;DHT22;4551;53.164;8.210;2022-08-19T07:57:55;18.30;99.90
9033;DHT22;4551;53.164;8.210;2022-08-19T08:00:24;18.30;99.90
9033;DHT22;4551;53.164;8.210;2022-08-19T08:02:54;18.30;99.90
9033;DHT22;4551;53.164;8.210;2022-08-19T08:05:23;18.40;99.90
9033;DHT22;4551;53.164;8.210;2022-08-19T08:08:10;18.40;99.90
9033;DHT22;4551;53.164;8.210;2022-08-19T08:10:56;18.40;99.90
9033;DHT22;4551;53.164;8.210;2022-08-19T08:13:24;18.50;99.90
9033;DHT22;4551;53.164;8.210;2022-08-19T08:15:53;18.50;99.90
9033;DHT22;4551;53.164;8.210;2022-08-19T08:18:23;18.60;99.90
9033;DHT22;4551;53.164;8.210;2022-08-19T08:20:57;18.60;99.90
9033;DHT22;4551;53.164;8.210;2022-08-19T08:23:25;18.70;99.90
9033;DHT22;4551;53.164;8.210;2022-08-19T08:25:56;18.70;99.90
9033;DHT22;4551;53.164;8.210;2022-08-19T08:28:26;18.70;99.90
9033;DHT22;4551;53.164;8.210;2022-08-19T08:30:57;18.80;99.90
9033;DHT22;4551;53.164;8.210;2022-08-19T08:33:28;18.80;99.90
9033;DHT22;4551;53.164;8.210;2022-08-19T08:36:01;18.80;99.90
9033;DHT22;4551;53.164;8.210;2022-08-19T08:38:30;18.90;99.90
9033;DHT22;4551;53.164;8.210;2022-08-19T08:41:11;18.90;99.90
9033;DHT22;4551;53.164;8.210;2022-08-19T08:43:48;19.00;99.90
9033;DHT22;4551;53.164;8.210;2022-08-19T08:46:21;19.00;99.90
9033;DHT22;4551;53.164;8.210;2022-08-19T08:49:06;19.10;99.90
9033;DHT22;4551;53.164;8.210;2022-08-19T08:51:42;19.10;99.90
9033;DHT22;4551;53.164;8.210;2022-08-19T08:54:18;19.20;99.90
9033;DHT22;4551;53.164;8.210;2022-08-19T08:56:49;19.20;99.90
9033;DHT22;4551;53.164;8.210;2022-08-19T08:59:21;19.30;99.90
9033;DHT22;4551;53.164;8.210;2022-08-19T09:01:52;19.40;99.90
9033;DHT22;4551;53.164;8.210;2022-08-19T09:04:22;19.40;99.90
9033;DHT22;4551;53.164;8.210;2022-08-19T09:06:55;19.50;99.90
9033;DHT22;4551;53.164;8.210;2022-08-19T09:09:29;19.60;99.90
9033;DHT22;4551;53.164;8.210;2022-08-19T09:12:06;19.60;99.90
9033;DHT22;4551;53.164;8.210;2022-08-19T09:14:45;19.70;99.90
9033;DHT22;4551;53.164;8.210;2022-08-19T09:17:20;19.70;99.90
9033;DHT22;4551;53.164;8.210;2022-08-19T09:20:01;19.80;99.90
9033;DHT22;4551;53.164;8.210;2022-08-19T09:22:35;19.80;99.90
9033;DHT22;4551;53.164;8.210;2022-08-19T09:25:06;19.90;99.90
9033;DHT22;4551;53.164;8.210;2022-08-19T09:27:36;20.00;99.90
9033;DHT22;4551;53.164;8.210;2022-08-19T09:30:12;20.10;99.90
9033;DHT22;4551;53.164;8.210;2022-08-19T09:32:41;20.10;99.90
9033;DHT22;4551;53.164;8.210;2022-08-19T09:35:12;20.10;99.90
9033;DHT22;4551;53.164;8.210;2022-08-19T09:37:41;20.20;99.90
9033;DHT22;4551;53.164;8.210;2022-08-19T09:40:11;20.30;99.90
9033;DHT22;4551;53.164;8.210;2022-08-19T09:42:41;20.40;99.90
9033;DHT22;4551;53.164;8.210;2022-08-19T09:45:20;20.40;99.90
9033;DHT22;4551;53.164;8.210;2022-08-19T09:47:50;20.40;99.90
9033;DHT22;4551;53.164;8.210;2022-08-19T09:50:23;20.40;99.90
9033;DHT22;4551;53.164;8.210;2022-08-19T09:52:52;20.40;99.90
9033;DHT22;4551;53.164;8.210;2022-08-19T09:55:25;20.50;99.90
9033;DHT22;4551;53.164;8.210;2022-08-19T09:58:00;20.60;99.90
9033;DHT22;4551;53.164;8.210;2022-08-19T10:00:29;20.60;99.90
9033;DHT22;4551;53.164;8.210;2022-08-19T10:02:58;20.70;99.90
9033;DHT22;4551;53.164;8.210;2022-08-19T10:05:28;20.80;99.90
9033;DHT22;4551;53.164;8.210;2022-08-19T10:08:16;20.70;99.90
9033;DHT22;4551;53.164;8.210;2022-08-19T10:10:46;20.80;99.90
9033;DHT22;4551;53.164;8.210;2022-08-19T10:13:17;20.80;99.90
9033;DHT22;4551;53.164;8.210;2022-08-19T10:15:47;20.80;99.90
9033;DHT22;4551;53.164;8.210;2022-08-19T10:18:18;20.80;99.90
9033;DHT22;4551;53.164;8.210;2022-08-19T10:20:49;20.90;99.90
9033;DHT22;4551;53.164;8.210;2022-08-19T10:23:20;20.90;99.90
9033;DHT22;4551;53.164;8.210;2022-08-19T10:25:48;21.00;99.90
9033;DHT22;4551;53.164;8.210;2022-08-19T10:28:20;20.90;99.90
9033;DHT22;4551;53.164;8.210;2022-08-19T10:30:49;21.00;99.90
9033;DHT22;4551;53.164;8.210;2022-08-19T10:33:17;21.00;99.90
9033;DHT22;4551;53.164;8.210;2022-08-19T10:36:10;21.00;99.90
9033;DHT22;4551;53.164;8.210;2022-08-19T10:38:40;21.10;99.90
9033;DHT22;4551;53.164;8.210;2022-08-19T10:41:22;21.20;99.90
9033;DHT22;4551;53.164;8.210;2022-08-19T10:43:52;21.30;99.90
9033;DHT22;4551;53.164;8.210;2022-08-19T10:46:23;21.30;99.90
9033;DHT22;4551;53.164;8.210;2022-08-19T10:48:51;21.40;99.90
9033;DHT22;4551;53.164;8.210;2022-08-19T10:51:21;21.50;99.90
9033;DHT22;4551;53.164;8.210;2022-08-19T10:54:15;21.50;99.90
9033;DHT22;4551;53.164;8.210;2022-08-19T10:56:57;21.70;99.90
9033;DHT22;4551;53.164;8.210;2022-08-19T10:59:26;21.80;99.90
9033;DHT22;4551;53.164;8.210;2022-08-19T11:02:03;21.90;99.90
9033;DHT22;4551;53.164;8.210;2022-08-19T11:04:31;21.90;99.90
9033;DHT22;4551;53.164;8.210;2022-08-19T11:07:03;22.00;99.90
9033;DHT22;4551;53.164;8.210;2022-08-19T11:09:35;22.00;99.90
9033;DHT22;4551;53.164;8.210;2022-08-19T11:12:05;22.20;99.90
9033;DHT22;4551;53.164;8.210;2022-08-19T11:14:35;22.30;99.90
9033;DHT22;4551;53.164;8.210;2022-08-19T11:17:04;22.40;99.90
9033;DHT22;4551;53.164;8.210;2022-08-19T11:19:34;22.60;99.90
9033;DHT22;4551;53.164;8.210;2022-08-19T11:22:04;22.60;99.90
9033;DHT22;4551;53.164;8.210;2022-08-19T11:24:36;22.60;99.90
9033;DHT22;4551;53.164;8.210;2022-08-19T11:27:07;22.60;99.90
9033;DHT22;4551;53.164;8.210;2022-08-19T11:29:37;22.70;99.90
9033;DHT22;4551;53.164;8.210;2022-08-19T11:32:09;22.80;99.90
9033;DHT22;4551;53.164;8.210;2022-08-19T11:34:37;22.80;99.90
9033;DHT22;4551;53.164;8.210;2022-08-19T11:37:07;22.90;99.90
9033;DHT22;4551;53.164;8.210;2022-08-19T11:39:36;23.00;99.90
9033;DHT22;4551;53.164;8.210;2022-08-19T11:42:06;23.10;99.90
9033;DHT22;4551;53.164;8.210;2022-08-19T11:44:54;23.20;99.90
9033;DHT22;4551;53.164;8.210;2022-08-19T11:47:23;23.40;99.90
9033;DHT22;4551;53.164;8.210;2022-08-19T11:49:51;23.40;99.90
9033;DHT22;4551;53.164;8.210;2022-08-19T11:52:21;23.60;99.90
9033;DHT22;4551;53.164;8.210;2022-08-19T11:54:49;23.70;99.90
9033;DHT22;4551;53.164;8.210;2022-08-19T11:57:17;23.70;99.90
9033;DHT22;4551;53.164;8.210;2022-08-19T11:59:50;23.70;99.90
9033;DHT22;4551;53.164;8.210;2022-08-19T12:02:19;23.80;99.90
9033;DHT22;4551;53.164;8.210;2022-08-19T12:04:48;23.90;99.90
9033;DHT22;4551;53.164;8.210;2022-08-19T12:07:17;24.00;99.90
9033;DHT22;4551;53.164;8.210;2022-08-19T12:09:46;24.00;99.90
9033;DHT22;4551;53.164;8.210;2022-08-19T12:12:15;24.00;99.90
9033;DHT22;4551;53.164;8.210;2022-08-19T12:14:43;24.10;99.90
9033;DHT22;4551;53.164;8.210;2022-08-19T12:17:13;24.20;99.90
9033;DHT22;4551;53.164;8.210;2022-08-19T12:19:42;24.30;99.90
9033;DHT22;4551;53.164;8.210;2022-08-19T12:22:10;24.50;99.90
9033;DHT22;4551;53.164;8.210;2022-08-19T12:24:39;24.50;99.90
9033;DHT22;4551;53.164;8.210;2022-08-19T12:27:08;24.30;99.90
9033;DHT22;4551;53.164;8.210;2022-08-19T12:29:38;24.70;99.90
9033;DHT22;4551;53.164;8.210;2022-08-19T12:32:08;24.70;99.90
9033;DHT22;4551;53.164;8.210;2022-08-19T12:34:38;24.90;99.90
9033;DHT22;4551;53.164;8.210;2022-08-19T12:37:07;25.00;99.90
9033;DHT22;4551;53.164;8.210;2022-08-19T12:39:37;25.10;99.90
9033;DHT22;4551;53.164;8.210;2022-08-19T12:42:08;25.10;99.90
9033;DHT22;4551;53.164;8.210;2022-08-19T12:44:37;25.10;99.90
9033;DHT22;4551;53.164;8.210;2022-08-19T12:47:09;25.30;99.90
9033;DHT22;4551;53.164;8.210;2022-08-19T12:49:39;25.40;99.90
9033;DHT22;4551;53.164;8.210;2022-08-19T12:52:22;25.50;99.90
9033;DHT22;4551;53.164;8.210;2022-08-19T12:54:51;25.50;99.90
9033;DHT22;4551;53.164;8.210;2022-08-19T12:57:23;25.50;99.90
9033;DHT22;4551;53.164;8.210;2022-08-19T13:00:00;25.70;99.90
9033;DHT22;4551;53.164;8.210;2022-08-19T13:02:32;25.80;99.90
9033;DHT22;4551;53.164;8.210;2022-08-19T13:05:06;25.80;99.90
9033;DHT22;4551;53.164;8.210;2022-08-19T13:07:36;25.80;99.90
9033;DHT22;4551;53.164;8.210;2022-08-19T13:10:07;25.80;99.90
9033;DHT22;4551;53.164;8.210;2022-08-19T13:12:37;25.80;99.90
9033;DHT22;4551;53.164;8.210;2022-08-19T13:15:06;25.80;99.90
9033;DHT22;4551;53.164;8.210;2022-08-19T13:17:38;25.90;99.90
9033;DHT22;4551;53.164;8.210;2022-08-19T13:20:08;26.10;99.90
9033;DHT22;4551;53.164;8.210;2022-08-19T13:22:37;26.20;99.90
9033;DHT22;4551;53.164;8.210;2022-08-19T13:25:07;26.40;99.90
9033;DHT22;4551;53.164;8.210;2022-08-19T13:27:37;26.40;99.90
9033;DHT22;4551;53.164;8.210;2022-08-19T13:30:07;26.60;99.90
9033;DHT22;4551;53.164;8.210;2022-08-19T13:32:54;26.70;99.90
9033;DHT22;4551;53.164;8.210;2022-08-19T13:35:45;26.80;99.90
9033;DHT22;4551;53.164;8.210;2022-08-19T13:38:16;26.90;99.90
9033;DHT22;4551;53.164;8.210;2022-08-19T13:40:45;26.90;99.90
9033;DHT22;4551;53.164;8.210;2022-08-19T13:43:14;27.00;99.90
9033;DHT22;4551;53.164;8.210;2022-08-19T13:45:50;27.10;99.90
9033;DHT22;4551;53.164;8.210;2022-08-19T13:48:24;27.20;99.90
9033;DHT22;4551;53.164;8.210;2022-08-19T13:50:53;27.30;99.90
9033;DHT22;4551;53.164;8.210;2022-08-19T13:53:21;27.20;99.90
9033;DHT22;4551;53.164;8.210;2022-08-19T13:55:50;27.40;99.90
9033;DHT22;4551;53.164;8.210;2022-08-19T13:58:21;27.60;99.90
9033;DHT22;4551;53.164;8.210;2022-08-19T14:00:50;27.80;99.90
9033;DHT22;4551;53.164;8.210;2022-08-19T14:03:18;27.90;99.90
9033;DHT22;4551;53.164;8.210;2022-08-19T14:05:47;27.90;99.90
9033;DHT22;4551;53.164;8.210;2022-08-19T14:08:15;27.80;99.90
9033;DHT22;4551;53.164;8.210;2022-08-19T14:10:44;27.80;99.90
9033;DHT22;4551;53.164;8.210;2022-08-19T14:13:14;27.90;99.90
9033;DHT22;4551;53.164;8.210;2022-08-19T14:15:44;28.30;99.90
9033;DHT22;4551;53.164;8.210;2022-08-19T14:18:14;28.20;99.90
9033;DHT22;4551;53.164;8.210;2022-08-19T14:20:42;28.20;99.90
9033;DHT22;4551;53.164;8.210;2022-08-19T14:23:10;28.50;99.90
9033;DHT22;4551;53.164;8.210;2022-08-19T14:25:41;29.00;99.90
9033;DHT22;4551;53.164;8.210;2022-08-19T14:28:12;29.20;99.90
9033;DHT22;4551;53.164;8.210;2022-08-19T14:30:40;29.50;99.90
9033;DHT22;4551;53.164;8.210;2022-08-19T14:33:14;29.80;99.90
9033;DHT22;4551;53.164;8.210;2022-08-19T14:35:45;30.00;99.90
9033;DHT22;4551;53.164;8.210;2022-08-19T14:38:15;30.30;99.90
9033;DHT22;4551;53.164;8.210;2022-08-19T14:40:53;30.80;99.90
9033;DHT22;4551;53.164;8.210;2022-08-19T14:43:23;31.20;99.90
9033;DHT22;4551;53.164;8.210;2022-08-19T14:45:51;31.50;99.90
9033;DHT22;4551;53.164;8.210;2022-08-19T14:48:21;31.60;99.90
9033;DHT22;4551;53.164;8.210;2022-08-19T14:50:55;31.50;99.90
9033;DHT22;4551;53.164;8.210;2022-08-19T14:53:23;30.90;99.90
9033;DHT22;4551;53.164;8.210;2022-08-19T14:55:51;31.30;99.90
9033;DHT22;4551;53.164;8.210;2022-08-19T14:58:19;31.70;99.90
9033;DHT22;4551;53.164;8.210;2022-08-19T15:00:57;31.70;99.90
9033;DHT22;4551;53.164;8.210;2022-08-19T15:03:28;31.50;99.90
9033;DHT22;4551;53.164;8.210;2022-08-19T15:05:59;31.90;99.90
9033;DHT22;4551;53.164;8.210;2022-08-19T15:08:30;32.20;99.90
9033;DHT22;4551;53.164;8.210;2022-08-19T15:10:59;32.60;99.90
9033;DHT22;4551;53.164;8.210;2022-08-19T15:13:29;32.90;99.90
9033;DHT22;4551;53.164;8.210;2022-08-19T15:15:57;32.90;99.90
9033;DHT22;4551;53.164;8.210;2022-08-19T15:18:27;31.90;99.90
9033;DHT22;4551;53.164;8.210;2022-08-19T15:20:56;32.00;99.90
9033;DHT22;4551;53.164;8.210;2022-08-19T15:23:24;32.30;99.90
9033;DHT22;4551;53.164;8.210;2022-08-19T15:25:53;32.40;99.90
9033;DHT22;4551;53.164;8.210;2022-08-19T15:28:23;32.70;99.90
9033;DHT22;4551;53.164;8.210;2022-08-19T15:30:51;32.20;99.90
9033;DHT22;4551;53.164;8.210;2022-08-19T15:33:20;32.20;99.90
9033;DHT22;4551;53.164;8.210;2022-08-19T15:35:49;32.20;99.90
9033;DHT22;4551;53.164;8.210;2022-08-19T15:38:19;32.30;99.90
9033;DHT22;4551;53.164;8.210;2022-08-19T15:40:49;32.60;99.90
9033;DHT22;4551;53.164;8.210;2022-08-19T15:43:18;32.80;99.90
9033;DHT22;4551;53.164;8.210;2022-08-19T15:45:48;32.70;99.90
9033;DHT22;4551;53.164;8.210;2022-08-19T15:48:16;32.10;99.90
9033;DHT22;4551;53.164;8.210;2022-08-19T15:50:44;31.90;99.90
9033;DHT22;4551;53.164;8.210;2022-08-19T15:53:13;31.90;99.90
9033;DHT22;4551;53.164;8.210;2022-08-19T15:55:44;31.80;99.90
9033;DHT22;4551;53.164;8.210;2022-08-19T15:58:14;31.30;99.90
9033;DHT22;4551;53.164;8.210;2022-08-19T16:01:06;31.00;99.90
9033;DHT22;4551;53.164;8.210;2022-08-19T16:03:54;30.80;99.90
9033;DHT22;4551;53.164;8.210;2022-08-19T16:06:45;30.50;99.90
9033;DHT22;4551;53.164;8.210;2022-08-19T16:09:16;30.30;99.90
9033;DHT22;4551;53.164;8.210;2022-08-19T16:11:50;30.30;99.90
9033;DHT22;4551;53.164;8.210;2022-08-19T16:14:25;30.20;99.90
9033;DHT22;4551;53.164;8.210;2022-08-19T16:16:53;30.20;99.90
9033;DHT22;4551;53.164;8.210;2022-08-19T16:19:23;30.10;99.90
9033;DHT22;4551;53.164;8.210;2022-08-19T16:21:53;29.90;99.90
9033;DHT22;4551;53.164;8.210;2022-08-19T16:24:25;29.90;99.90
9033;DHT22;4551;53.164;8.210;2022-08-19T16:26:55;29.90;99.90
9033;DHT22;4551;53.164;8.210;2022-08-19T16:29:23;30.00;99.90